sensor_id;sensor_type;location;lat;lon;timestamp;P1;durP1;ratioP1;P2;durP2;ratioP2
11671;SDS011;5892;43.412;24.612;2023-01-23T00:01:09;580.10;;;61.33;;
11671;SDS011;5892;43.412;24.612;2023-01-23T00:03:40;242.20;;;53.40;;
11671;SDS011;5892;43.412;24.612;2023-01-23T00:06:09;420.43;;;56.67;;
11671;SDS011;5892;43.412;24.612;2023-01-23T00:08:37;530.37;;;61.50;;
11671;SDS011;5892;43.412;24.612;2023-01-23T00:11:05;171.93;;;50.63;;
11671;SDS011;5892;43.412;24.612;2023-01-23T00:13:33;174.80;;;53.20;;
11671;SDS011;5892;43.412;24.612;2023-01-23T00:16:02;136.83;;;41.70;;
11671;SDS011;5892;43.412;24.612;2023-01-23T00:18:31;453.10;;;51.60;;
11671;SDS011;5892;43.412;24.612;2023-01-23T00:21:02;247.77;;;47.53;;
11671;SDS011;5892;43.412;24.612;2023-01-23T00:23:30;97.20;;;34.80;;
11671;SDS011;5892;43.412;24.612;2023-01-23T00:26:01;57.07;;;26.83;;
11671;SDS011;5892;43.412;24.612;2023-01-23T00:28:35;46.47;;;23.47;;
11671;SDS011;5892;43.412;24.612;2023-01-23T00:31:03;40.80;;;21.53;;
11671;SDS011;5892;43.412;24.612;2023-01-23T00:33:33;44.47;;;20.03;;
11671;SDS011;5892;43.412;24.612;2023-01-23T00:36:00;37.33;;;19.07;;
11671;SDS011;5892;43.412;24.612;2023-01-23T00:38:27;38.23;;;19.13;;
11671;SDS011;5892;43.412;24.612;2023-01-23T00:40:54;33.33;;;18.20;;
11671;SDS011;5892;43.412;24.612;2023-01-23T00:43:22;35.87;;;17.83;;
11671;SDS011;5892;43.412;24.612;2023-01-23T00:45:50;32.33;;;19.20;;
11671;SDS011;5892;43.412;24.612;2023-01-23T00:48:17;31.33;;;18.47;;
11671;SDS011;5892;43.412;24.612;2023-01-23T00:50:47;32.63;;;18.53;;
11671;SDS011;5892;43.412;24.612;2023-01-23T00:53:14;29.37;;;17.57;;
11671;SDS011;5892;43.412;24.612;2023-01-23T00:55:41;32.77;;;18.33;;
11671;SDS011;5892;43.412;24.612;2023-01-23T00:58:08;34.07;;;18.27;;
11671;SDS011;5892;43.412;24.612;2023-01-23T01:00:36;30.97;;;18.10;;
11671;SDS011;5892;43.412;24.612;2023-01-23T01:03:03;33.83;;;17.77;;
11671;SDS011;5892;43.412;24.612;2023-01-23T01:05:32;36.13;;;19.37;;
11671;SDS011;5892;43.412;24.612;2023-01-23T01:08:01;31.20;;;18.77;;
11671;SDS011;5892;43.412;24.612;2023-01-23T01:10:28;29.60;;;18.50;;
11671;SDS011;5892;43.412;24.612;2023-01-23T01:12:57;32.10;;;17.67;;
11671;SDS011;5892;43.412;24.612;2023-01-23T01:15:28;23.63;;;15.57;;
11671;SDS011;5892;43.412;24.612;2023-01-23T01:17:56;28.23;;;17.53;;
11671;SDS011;5892;43.412;24.612;2023-01-23T01:20:25;28.23;;;18.77;;
11671;SDS011;5892;43.412;24.612;2023-01-23T01:22:53;27.40;;;17.47;;
11671;SDS011;5892;43.412;24.612;2023-01-23T01:25:26;28.47;;;17.50;;
11671;SDS011;5892;43.412;24.612;2023-01-23T01:27:54;25.80;;;16.30;;
11671;SDS011;5892;43.412;24.612;2023-01-23T01:30:21;27.27;;;17.00;;
11671;SDS011;5892;43.412;24.612;2023-01-23T01:32:51;22.87;;;16.23;;
11671;SDS011;5892;43.412;24.612;2023-01-23T01:35:20;25.93;;;17.00;;
11671;SDS011;5892;43.412;24.612;2023-01-23T01:37:47;25.97;;;16.83;;
11671;SDS011;5892;43.412;24.612;2023-01-23T01:40:15;26.30;;;16.77;;
11671;SDS011;5892;43.412;24.612;2023-01-23T01:42:47;23.03;;;15.27;;
11671;SDS011;5892;43.412;24.612;2023-01-23T01:48:43;24.80;;;15.47;;
11671;SDS011;5892;43.412;24.612;2023-01-23T01:51:15;23.03;;;15.73;;
11671;SDS011;5892;43.412;24.612;2023-01-23T01:53:49;21.87;;;15.37;;
11671;SDS011;5892;43.412;24.612;2023-01-23T01:56:28;25.87;;;14.70;;
11671;SDS011;5892;43.412;24.612;2023-01-23T01:59:29;24.73;;;17.50;;
11671;SDS011;5892;43.412;24.612;2023-01-23T02:02:01;22.53;;;15.27;;
11671;SDS011;5892;43.412;24.612;2023-01-23T02:04:30;23.63;;;16.80;;
11671;SDS011;5892;43.412;24.612;2023-01-23T02:06:59;24.03;;;16.10;;
11671;SDS011;5892;43.412;24.612;2023-01-23T02:09:32;22.17;;;14.83;;
11671;SDS011;5892;43.412;24.612;2023-01-23T02:12:01;30.63;;;14.97;;
11671;SDS011;5892;43.412;24.612;2023-01-23T02:14:30;26.13;;;15.20;;
11671;SDS011;5892;43.412;24.612;2023-01-23T02:16:58;20.40;;;15.20;;
11671;SDS011;5892;43.412;24.612;2023-01-23T02:19:37;29.03;;;15.13;;
11671;SDS011;5892;43.412;24.612;2023-01-23T02:22:12;22.47;;;13.43;;
11671;SDS011;5892;43.412;24.612;2023-01-23T02:24:56;22.67;;;15.00;;
11671;SDS011;5892;43.412;24.612;2023-01-23T02:27:34;21.50;;;13.93;;
11671;SDS011;5892;43.412;24.612;2023-01-23T02:30:07;20.97;;;14.17;;
11671;SDS011;5892;43.412;24.612;2023-01-23T02:32:39;22.40;;;12.97;;
11671;SDS011;5892;43.412;24.612;2023-01-23T02:35:10;23.47;;;13.47;;
11671;SDS011;5892;43.412;24.612;2023-01-23T02:37:42;23.37;;;15.17;;
11671;SDS011;5892;43.412;24.612;2023-01-23T02:40:12;21.50;;;13.53;;
11671;SDS011;5892;43.412;24.612;2023-01-23T02:42:42;19.40;;;12.97;;
11671;SDS011;5892;43.412;24.612;2023-01-23T02:45:12;19.27;;;12.97;;
11671;SDS011;5892;43.412;24.612;2023-01-23T02:47:39;20.90;;;12.50;;
11671;SDS011;5892;43.412;24.612;2023-01-23T02:50:06;19.97;;;12.43;;
11671;SDS011;5892;43.412;24.612;2023-01-23T02:52:33;20.53;;;11.67;;
11671;SDS011;5892;43.412;24.612;2023-01-23T02:55:00;15.77;;;10.53;;
11671;SDS011;5892;43.412;24.612;2023-01-23T02:57:28;19.27;;;11.20;;
11671;SDS011;5892;43.412;24.612;2023-01-23T02:59:56;18.37;;;12.27;;
11671;SDS011;5892;43.412;24.612;2023-01-23T03:02:40;13.07;;;9.13;;
11671;SDS011;5892;43.412;24.612;2023-01-23T03:05:10;17.07;;;10.80;;
11671;SDS011;5892;43.412;24.612;2023-01-23T03:07:37;17.07;;;10.27;;
11671;SDS011;5892;43.412;24.612;2023-01-23T03:10:04;12.80;;;8.53;;
11671;SDS011;5892;43.412;24.612;2023-01-23T03:12:34;17.87;;;10.80;;
11671;SDS011;5892;43.412;24.612;2023-01-23T03:15:04;14.17;;;9.50;;
11671;SDS011;5892;43.412;24.612;2023-01-23T03:17:31;17.87;;;10.53;;
11671;SDS011;5892;43.412;24.612;2023-01-23T03:19:58;15.43;;;10.60;;
11671;SDS011;5892;43.412;24.612;2023-01-23T03:22:25;13.90;;;9.37;;
11671;SDS011;5892;43.412;24.612;2023-01-23T03:24:52;17.50;;;10.43;;
11671;SDS011;5892;43.412;24.612;2023-01-23T03:27:21;15.67;;;9.80;;
11671;SDS011;5892;43.412;24.612;2023-01-23T03:29:49;16.97;;;10.07;;
11671;SDS011;5892;43.412;24.612;2023-01-23T03:32:34;15.97;;;9.83;;
11671;SDS011;5892;43.412;24.612;2023-01-23T03:35:03;13.20;;;9.77;;
11671;SDS011;5892;43.412;24.612;2023-01-23T03:37:30;14.40;;;9.10;;
11671;SDS011;5892;43.412;24.612;2023-01-23T03:39:57;16.00;;;10.27;;
11671;SDS011;5892;43.412;24.612;2023-01-23T03:42:41;16.60;;;9.83;;
11671;SDS011;5892;43.412;24.612;2023-01-23T03:45:09;13.90;;;7.70;;
11671;SDS011;5892;43.412;24.612;2023-01-23T03:47:39;14.03;;;8.90;;
11671;SDS011;5892;43.412;24.612;2023-01-23T03:50:06;15.50;;;8.07;;
11671;SDS011;5892;43.412;24.612;2023-01-23T03:52:36;12.00;;;8.13;;
11671;SDS011;5892;43.412;24.612;2023-01-23T03:55:03;14.07;;;8.47;;
11671;SDS011;5892;43.412;24.612;2023-01-23T03:57:31;12.97;;;8.87;;
11671;SDS011;5892;43.412;24.612;2023-01-23T03:59:58;13.83;;;8.90;;
11671;SDS011;5892;43.412;24.612;2023-01-23T04:02:25;16.27;;;9.57;;
11671;SDS011;5892;43.412;24.612;2023-01-23T04:04:54;12.73;;;7.53;;
11671;SDS011;5892;43.412;24.612;2023-01-23T04:07:23;15.23;;;8.90;;
11671;SDS011;5892;43.412;24.612;2023-01-23T04:09:52;15.77;;;8.70;;
11671;SDS011;5892;43.412;24.612;2023-01-23T04:12:20;18.30;;;7.97;;
11671;SDS011;5892;43.412;24.612;2023-01-23T04:14:50;14.77;;;8.43;;
11671;SDS011;5892;43.412;24.612;2023-01-23T04:17:17;18.60;;;9.93;;
11671;SDS011;5892;43.412;24.612;2023-01-23T04:19:44;13.93;;;9.43;;
11671;SDS011;5892;43.412;24.612;2023-01-23T04:22:12;14.00;;;9.40;;
11671;SDS011;5892;43.412;24.612;2023-01-23T04:24:39;14.13;;;9.17;;
11671;SDS011;5892;43.412;24.612;2023-01-23T04:27:07;19.13;;;10.20;;
11671;SDS011;5892;43.412;24.612;2023-01-23T04:29:34;17.07;;;9.83;;
11671;SDS011;5892;43.412;24.612;2023-01-23T04:32:01;16.13;;;10.73;;
11671;SDS011;5892;43.412;24.612;2023-01-23T04:34:28;15.30;;;10.13;;
11671;SDS011;5892;43.412;24.612;2023-01-23T04:36:56;17.37;;;11.13;;
11671;SDS011;5892;43.412;24.612;2023-01-23T04:39:25;17.00;;;10.27;;
11671;SDS011;5892;43.412;24.612;2023-01-23T04:41:52;19.63;;;11.33;;
11671;SDS011;5892;43.412;24.612;2023-01-23T04:44:21;15.57;;;10.57;;
11671;SDS011;5892;43.412;24.612;2023-01-23T04:46:49;17.07;;;10.17;;
11671;SDS011;5892;43.412;24.612;2023-01-23T04:49:18;17.20;;;10.77;;
11671;SDS011;5892;43.412;24.612;2023-01-23T04:51:49;14.47;;;10.07;;
11671;SDS011;5892;43.412;24.612;2023-01-23T04:54:18;15.60;;;9.20;;
11671;SDS011;5892;43.412;24.612;2023-01-23T05:00:01;16.47;;;10.83;;
11671;SDS011;5892;43.412;24.612;2023-01-23T05:03:00;16.20;;;10.10;;
11671;SDS011;5892;43.412;24.612;2023-01-23T05:05:46;13.43;;;9.43;;
11671;SDS011;5892;43.412;24.612;2023-01-23T05:08:38;16.00;;;9.63;;
11671;SDS011;5892;43.412;24.612;2023-01-23T05:11:06;17.90;;;11.17;;
11671;SDS011;5892;43.412;24.612;2023-01-23T05:13:35;17.90;;;11.37;;
11671;SDS011;5892;43.412;24.612;2023-01-23T05:16:03;16.90;;;12.00;;
11671;SDS011;5892;43.412;24.612;2023-01-23T05:18:30;16.10;;;9.50;;
11671;SDS011;5892;43.412;24.612;2023-01-23T05:20:57;18.00;;;12.10;;
11671;SDS011;5892;43.412;24.612;2023-01-23T05:23:25;18.27;;;11.50;;
11671;SDS011;5892;43.412;24.612;2023-01-23T05:25:52;18.17;;;11.60;;
11671;SDS011;5892;43.412;24.612;2023-01-23T05:28:18;20.40;;;11.93;;
11671;SDS011;5892;43.412;24.612;2023-01-23T05:30:49;16.23;;;10.53;;
11671;SDS011;5892;43.412;24.612;2023-01-23T05:33:17;19.27;;;11.23;;
11671;SDS011;5892;43.412;24.612;2023-01-23T05:35:47;17.33;;;11.13;;
11671;SDS011;5892;43.412;24.612;2023-01-23T05:38:14;19.37;;;10.87;;
11671;SDS011;5892;43.412;24.612;2023-01-23T05:40:41;19.87;;;10.70;;
11671;SDS011;5892;43.412;24.612;2023-01-23T05:43:08;18.87;;;10.57;;
11671;SDS011;5892;43.412;24.612;2023-01-23T05:45:39;17.93;;;12.10;;
11671;SDS011;5892;43.412;24.612;2023-01-23T05:48:11;19.37;;;11.30;;
11671;SDS011;5892;43.412;24.612;2023-01-23T05:50:38;20.23;;;12.40;;
11671;SDS011;5892;43.412;24.612;2023-01-23T05:53:06;16.43;;;11.63;;
11671;SDS011;5892;43.412;24.612;2023-01-23T05:55:33;17.13;;;11.17;;
11671;SDS011;5892;43.412;24.612;2023-01-23T05:58:00;16.90;;;10.77;;
11671;SDS011;5892;43.412;24.612;2023-01-23T06:00:29;19.13;;;11.83;;
11671;SDS011;5892;43.412;24.612;2023-01-23T06:02:57;15.73;;;10.13;;
11671;SDS011;5892;43.412;24.612;2023-01-23T06:05:25;15.97;;;11.63;;
11671;SDS011;5892;43.412;24.612;2023-01-23T06:07:53;19.77;;;11.83;;
11671;SDS011;5892;43.412;24.612;2023-01-23T06:10:26;20.87;;;11.23;;
11671;SDS011;5892;43.412;24.612;2023-01-23T06:13:15;20.33;;;12.03;;
11671;SDS011;5892;43.412;24.612;2023-01-23T06:15:42;18.93;;;12.30;;
11671;SDS011;5892;43.412;24.612;2023-01-23T06:18:09;17.97;;;11.37;;
11671;SDS011;5892;43.412;24.612;2023-01-23T06:20:38;21.77;;;12.60;;
11671;SDS011;5892;43.412;24.612;2023-01-23T06:23:06;17.47;;;11.83;;
11671;SDS011;5892;43.412;24.612;2023-01-23T06:25:33;15.27;;;10.73;;
11671;SDS011;5892;43.412;24.612;2023-01-23T06:28:01;20.83;;;12.67;;
11671;SDS011;5892;43.412;24.612;2023-01-23T06:30:30;19.63;;;12.40;;
11671;SDS011;5892;43.412;24.612;2023-01-23T06:32:57;19.33;;;12.20;;
11671;SDS011;5892;43.412;24.612;2023-01-23T06:35:24;20.87;;;12.07;;
11671;SDS011;5892;43.412;24.612;2023-01-23T06:37:57;21.03;;;12.60;;
11671;SDS011;5892;43.412;24.612;2023-01-23T06:40:27;20.77;;;12.97;;
11671;SDS011;5892;43.412;24.612;2023-01-23T06:42:54;20.73;;;13.33;;
11671;SDS011;5892;43.412;24.612;2023-01-23T06:45:24;24.07;;;14.13;;
11671;SDS011;5892;43.412;24.612;2023-01-23T06:47:52;24.90;;;13.80;;
11671;SDS011;5892;43.412;24.612;2023-01-23T06:50:31;21.70;;;11.70;;
11671;SDS011;5892;43.412;24.612;2023-01-23T06:53:02;20.73;;;12.80;;
11671;SDS011;5892;43.412;24.612;2023-01-23T06:55:29;20.73;;;13.93;;
11671;SDS011;5892;43.412;24.612;2023-01-23T06:57:59;22.73;;;13.83;;
11671;SDS011;5892;43.412;24.612;2023-01-23T07:00:26;19.30;;;12.57;;
11671;SDS011;5892;43.412;24.612;2023-01-23T07:02:53;20.73;;;12.83;;
11671;SDS011;5892;43.412;24.612;2023-01-23T07:05:23;24.63;;;13.87;;
11671;SDS011;5892;43.412;24.612;2023-01-23T07:07:51;26.83;;;13.47;;
11671;SDS011;5892;43.412;24.612;2023-01-23T07:10:20;21.03;;;13.03;;
11671;SDS011;5892;43.412;24.612;2023-01-23T07:12:48;24.47;;;13.07;;
11671;SDS011;5892;43.412;24.612;2023-01-23T07:15:16;24.27;;;14.57;;
11671;SDS011;5892;43.412;24.612;2023-01-23T07:17:44;27.03;;;13.77;;
11671;SDS011;5892;43.412;24.612;2023-01-23T07:20:11;19.30;;;12.67;;
11671;SDS011;5892;43.412;24.612;2023-01-23T07:22:39;23.00;;;13.67;;
11671;SDS011;5892;43.412;24.612;2023-01-23T07:25:06;22.30;;;13.00;;
11671;SDS011;5892;43.412;24.612;2023-01-23T07:27:37;18.70;;;11.70;;
11671;SDS011;5892;43.412;24.612;2023-01-23T07:30:05;22.33;;;12.93;;
11671;SDS011;5892;43.412;24.612;2023-01-23T07:32:33;20.27;;;11.97;;
11671;SDS011;5892;43.412;24.612;2023-01-23T07:35:00;23.70;;;13.40;;
11671;SDS011;5892;43.412;24.612;2023-01-23T07:37:28;20.53;;;12.87;;
11671;SDS011;5892;43.412;24.612;2023-01-23T07:39:55;21.23;;;13.13;;
11671;SDS011;5892;43.412;24.612;2023-01-23T07:42:24;19.10;;;12.67;;
11671;SDS011;5892;43.412;24.612;2023-01-23T07:44:53;18.80;;;13.20;;
11671;SDS011;5892;43.412;24.612;2023-01-23T07:47:20;22.33;;;13.67;;
11671;SDS011;5892;43.412;24.612;2023-01-23T07:49:47;20.47;;;11.40;;
11671;SDS011;5892;43.412;24.612;2023-01-23T07:52:14;19.33;;;12.73;;
11671;SDS011;5892;43.412;24.612;2023-01-23T07:54:41;19.67;;;13.07;;
11671;SDS011;5892;43.412;24.612;2023-01-23T07:57:09;18.13;;;12.07;;
11671;SDS011;5892;43.412;24.612;2023-01-23T07:59:37;20.87;;;13.17;;
11671;SDS011;5892;43.412;24.612;2023-01-23T08:02:07;23.17;;;14.47;;
11671;SDS011;5892;43.412;24.612;2023-01-23T08:04:37;23.03;;;13.43;;
11671;SDS011;5892;43.412;24.612;2023-01-23T08:07:06;20.60;;;13.70;;
11671;SDS011;5892;43.412;24.612;2023-01-23T08:09:33;26.07;;;14.20;;
11671;SDS011;5892;43.412;24.612;2023-01-23T08:12:00;18.50;;;11.03;;
11671;SDS011;5892;43.412;24.612;2023-01-23T08:14:27;18.60;;;12.43;;
11671;SDS011;5892;43.412;24.612;2023-01-23T08:16:54;19.93;;;11.93;;
11671;SDS011;5892;43.412;24.612;2023-01-23T08:19:25;22.83;;;11.90;;
11671;SDS011;5892;43.412;24.612;2023-01-23T08:21:52;19.00;;;12.47;;
11671;SDS011;5892;43.412;24.612;2023-01-23T08:24:19;18.03;;;12.73;;
11671;SDS011;5892;43.412;24.612;2023-01-23T08:26:46;19.43;;;12.27;;
11671;SDS011;5892;43.412;24.612;2023-01-23T08:29:17;16.13;;;10.43;;
11671;SDS011;5892;43.412;24.612;2023-01-23T08:31:43;18.30;;;12.97;;
11671;SDS011;5892;43.412;24.612;2023-01-23T08:34:11;20.27;;;12.70;;
11671;SDS011;5892;43.412;24.612;2023-01-23T08:36:40;24.87;;;12.83;;
11671;SDS011;5892;43.412;24.612;2023-01-23T08:39:07;21.33;;;13.10;;
11671;SDS011;5892;43.412;24.612;2023-01-23T08:41:35;19.50;;;11.43;;
11671;SDS011;5892;43.412;24.612;2023-01-23T08:44:02;21.30;;;13.20;;
11671;SDS011;5892;43.412;24.612;2023-01-23T08:46:30;22.27;;;12.40;;
11671;SDS011;5892;43.412;24.612;2023-01-23T08:48:58;20.67;;;13.40;;
11671;SDS011;5892;43.412;24.612;2023-01-23T08:51:25;23.67;;;14.07;;
11671;SDS011;5892;43.412;24.612;2023-01-23T08:53:54;20.07;;;12.50;;
11671;SDS011;5892;43.412;24.612;2023-01-23T08:56:22;17.40;;;11.07;;
11671;SDS011;5892;43.412;24.612;2023-01-23T08:58:49;20.43;;;13.30;;
11671;SDS011;5892;43.412;24.612;2023-01-23T09:01:17;19.63;;;12.93;;
11671;SDS011;5892;43.412;24.612;2023-01-23T09:03:47;17.73;;;12.03;;
11671;SDS011;5892;43.412;24.612;2023-01-23T09:06:15;21.20;;;12.23;;
11671;SDS011;5892;43.412;24.612;2023-01-23T09:08:43;19.13;;;11.07;;
11671;SDS011;5892;43.412;24.612;2023-01-23T09:11:11;19.10;;;12.67;;
11671;SDS011;5892;43.412;24.612;2023-01-23T09:13:39;23.40;;;11.37;;
11671;SDS011;5892;43.412;24.612;2023-01-23T09:16:07;15.77;;;10.90;;
11671;SDS011;5892;43.412;24.612;2023-01-23T09:18:35;18.27;;;10.83;;
11671;SDS011;5892;43.412;24.612;2023-01-23T09:21:06;18.63;;;12.50;;
11671;SDS011;5892;43.412;24.612;2023-01-23T09:23:35;19.17;;;11.00;;
11671;SDS011;5892;43.412;24.612;2023-01-23T09:26:03;15.93;;;10.70;;
11671;SDS011;5892;43.412;24.612;2023-01-23T09:28:35;18.30;;;10.90;;
11671;SDS011;5892;43.412;24.612;2023-01-23T09:31:05;19.57;;;11.27;;
11671;SDS011;5892;43.412;24.612;2023-01-23T09:33:35;12.77;;;8.17;;
11671;SDS011;5892;43.412;24.612;2023-01-23T09:36:03;17.80;;;10.77;;
11671;SDS011;5892;43.412;24.612;2023-01-23T09:38:31;19.47;;;11.13;;
11671;SDS011;5892;43.412;24.612;2023-01-23T09:40:59;20.33;;;11.57;;
11671;SDS011;5892;43.412;24.612;2023-01-23T09:43:36;19.00;;;12.20;;
11671;SDS011;5892;43.412;24.612;2023-01-23T09:46:11;13.57;;;10.03;;
11671;SDS011;5892;43.412;24.612;2023-01-23T09:48:42;20.27;;;11.43;;
11671;SDS011;5892;43.412;24.612;2023-01-23T09:51:12;17.70;;;11.30;;
11671;SDS011;5892;43.412;24.612;2023-01-23T09:53:46;20.57;;;10.70;;
11671;SDS011;5892;43.412;24.612;2023-01-23T09:56:23;15.93;;;10.37;;
11671;SDS011;5892;43.412;24.612;2023-01-23T09:59:00;17.13;;;9.47;;
11671;SDS011;5892;43.412;24.612;2023-01-23T10:01:34;17.43;;;11.07;;
11671;SDS011;5892;43.412;24.612;2023-01-23T10:04:02;19.17;;;10.97;;
11671;SDS011;5892;43.412;24.612;2023-01-23T10:06:32;13.90;;;9.63;;
11671;SDS011;5892;43.412;24.612;2023-01-23T10:09:33;19.00;;;10.40;;
11671;SDS011;5892;43.412;24.612;2023-01-23T10:12:12;17.17;;;10.33;;
11671;SDS011;5892;43.412;24.612;2023-01-23T10:14:54;12.80;;;8.03;;
11671;SDS011;5892;43.412;24.612;2023-01-23T10:17:38;15.87;;;8.93;;
11671;SDS011;5892;43.412;24.612;2023-01-23T10:20:18;17.57;;;9.03;;
11671;SDS011;5892;43.412;24.612;2023-01-23T10:22:56;14.90;;;8.17;;
11671;SDS011;5892;43.412;24.612;2023-01-23T10:25:34;16.00;;;8.80;;
11671;SDS011;5892;43.412;24.612;2023-01-23T10:28:13;15.90;;;8.70;;
11671;SDS011;5892;43.412;24.612;2023-01-23T10:30:50;14.63;;;8.00;;
11671;SDS011;5892;43.412;24.612;2023-01-23T10:33:24;17.50;;;9.27;;
11671;SDS011;5892;43.412;24.612;2023-01-23T10:36:01;17.03;;;10.03;;
11671;SDS011;5892;43.412;24.612;2023-01-23T10:38:34;15.13;;;9.90;;
11671;SDS011;5892;43.412;24.612;2023-01-23T10:41:11;15.57;;;9.00;;
11671;SDS011;5892;43.412;24.612;2023-01-23T10:43:45;16.50;;;10.27;;
11671;SDS011;5892;43.412;24.612;2023-01-23T10:46:17;15.40;;;10.23;;
11671;SDS011;5892;43.412;24.612;2023-01-23T10:48:45;19.07;;;9.90;;
11671;SDS011;5892;43.412;24.612;2023-01-23T10:54:13;20.30;;;9.67;;
11671;SDS011;5892;43.412;24.612;2023-01-23T10:56:49;15.90;;;8.93;;
11671;SDS011;5892;43.412;24.612;2023-01-23T10:59:20;14.67;;;8.20;;
11671;SDS011;5892;43.412;24.612;2023-01-23T11:02:08;12.53;;;7.90;;
11671;SDS011;5892;43.412;24.612;2023-01-23T11:04:44;14.43;;;8.40;;
11671;SDS011;5892;43.412;24.612;2023-01-23T11:07:14;16.53;;;10.40;;
11671;SDS011;5892;43.412;24.612;2023-01-23T11:09:48;19.70;;;9.27;;
11671;SDS011;5892;43.412;24.612;2023-01-23T11:12:18;16.97;;;9.33;;
11671;SDS011;5892;43.412;24.612;2023-01-23T11:14:49;14.67;;;7.93;;
11671;SDS011;5892;43.412;24.612;2023-01-23T11:17:23;16.37;;;9.27;;
11671;SDS011;5892;43.412;24.612;2023-01-23T11:19:58;15.33;;;9.17;;
11671;SDS011;5892;43.412;24.612;2023-01-23T11:22:27;13.03;;;9.37;;
11671;SDS011;5892;43.412;24.612;2023-01-23T11:24:57;17.53;;;9.30;;
11671;SDS011;5892;43.412;24.612;2023-01-23T11:27:25;14.37;;;8.83;;
11671;SDS011;5892;43.412;24.612;2023-01-23T11:32:55;16.10;;;9.07;;
11671;SDS011;5892;43.412;24.612;2023-01-23T11:35:28;15.93;;;9.60;;
11671;SDS011;5892;43.412;24.612;2023-01-23T11:38:24;17.10;;;7.10;;
11671;SDS011;5892;43.412;24.612;2023-01-23T11:40:53;15.33;;;8.60;;
11671;SDS011;5892;43.412;24.612;2023-01-23T11:43:20;17.40;;;9.43;;
11671;SDS011;5892;43.412;24.612;2023-01-23T11:48:54;14.93;;;9.90;;
11671;SDS011;5892;43.412;24.612;2023-01-23T11:51:35;14.70;;;9.80;;
11671;SDS011;5892;43.412;24.612;2023-01-23T11:54:11;13.70;;;8.97;;
11671;SDS011;5892;43.412;24.612;2023-01-23T11:56:51;13.70;;;7.40;;
11671;SDS011;5892;43.412;24.612;2023-01-23T11:59:31;13.40;;;9.13;;
11671;SDS011;5892;43.412;24.612;2023-01-23T12:02:31;13.50;;;9.53;;
11671;SDS011;5892;43.412;24.612;2023-01-23T12:05:32;18.10;;;10.20;;
11671;SDS011;5892;43.412;24.612;2023-01-23T12:08:24;15.97;;;9.63;;
11671;SDS011;5892;43.412;24.612;2023-01-23T12:11:01;17.17;;;8.63;;
11671;SDS011;5892;43.412;24.612;2023-01-23T12:16:35;16.70;;;9.80;;
11671;SDS011;5892;43.412;24.612;2023-01-23T12:19:18;13.30;;;8.20;;
11671;SDS011;5892;43.412;24.612;2023-01-23T12:21:58;17.83;;;9.87;;
11671;SDS011;5892;43.412;24.612;2023-01-23T12:24:35;13.27;;;8.43;;
11671;SDS011;5892;43.412;24.612;2023-01-23T12:27:15;11.33;;;7.77;;
11671;SDS011;5892;43.412;24.612;2023-01-23T12:30:01;12.53;;;8.80;;
11671;SDS011;5892;43.412;24.612;2023-01-23T12:32:43;13.43;;;8.60;;
11671;SDS011;5892;43.412;24.612;2023-01-23T12:35:28;16.97;;;8.70;;
11671;SDS011;5892;43.412;24.612;2023-01-23T12:40:49;12.33;;;7.33;;
11671;SDS011;5892;43.412;24.612;2023-01-23T12:43:23;10.47;;;7.33;;
11671;SDS011;5892;43.412;24.612;2023-01-23T12:46:02;10.87;;;6.30;;
11671;SDS011;5892;43.412;24.612;2023-01-23T12:48:34;10.10;;;5.67;;
11671;SDS011;5892;43.412;24.612;2023-01-23T12:51:10;8.83;;;5.90;;
11671;SDS011;5892;43.412;24.612;2023-01-23T12:53:43;12.13;;;7.13;;
11671;SDS011;5892;43.412;24.612;2023-01-23T12:56:16;15.60;;;7.30;;
11671;SDS011;5892;43.412;24.612;2023-01-23T12:58:51;10.73;;;6.33;;
11671;SDS011;5892;43.412;24.612;2023-01-23T13:01:33;11.30;;;6.23;;
11671;SDS011;5892;43.412;24.612;2023-01-23T13:04:14;12.20;;;7.23;;
11671;SDS011;5892;43.412;24.612;2023-01-23T13:07:09;10.60;;;6.53;;
11671;SDS011;5892;43.412;24.612;2023-01-23T13:09:56;10.67;;;6.63;;
11671;SDS011;5892;43.412;24.612;2023-01-23T13:13:18;12.47;;;7.00;;
11671;SDS011;5892;43.412;24.612;2023-01-23T13:15:59;11.57;;;6.63;;
11671;SDS011;5892;43.412;24.612;2023-01-23T13:18:29;10.20;;;5.77;;
11671;SDS011;5892;43.412;24.612;2023-01-23T13:21:16;14.60;;;7.20;;
11671;SDS011;5892;43.412;24.612;2023-01-23T13:24:11;11.50;;;7.00;;
11671;SDS011;5892;43.412;24.612;2023-01-23T13:27:44;10.40;;;6.63;;
11671;SDS011;5892;43.412;24.612;2023-01-23T13:36:11;10.67;;;7.03;;
11671;SDS011;5892;43.412;24.612;2023-01-23T13:38:39;13.73;;;6.77;;
11671;SDS011;5892;43.412;24.612;2023-01-23T13:43:57;10.30;;;6.30;;
11671;SDS011;5892;43.412;24.612;2023-01-23T13:46:31;14.40;;;7.90;;
11671;SDS011;5892;43.412;24.612;2023-01-23T13:49:13;11.30;;;7.50;;
11671;SDS011;5892;43.412;24.612;2023-01-23T13:52:14;14.83;;;7.67;;
11671;SDS011;5892;43.412;24.612;2023-01-23T13:55:02;12.53;;;7.83;;
11671;SDS011;5892;43.412;24.612;2023-01-23T13:57:53;12.07;;;7.53;;
11671;SDS011;5892;43.412;24.612;2023-01-23T14:00:23;18.73;;;9.27;;
11671;SDS011;5892;43.412;24.612;2023-01-23T14:02:52;11.47;;;8.00;;
11671;SDS011;5892;43.412;24.612;2023-01-23T14:05:39;14.07;;;8.87;;
11671;SDS011;5892;43.412;24.612;2023-01-23T14:08:14;13.73;;;8.83;;
11671;SDS011;5892;43.412;24.612;2023-01-23T14:10:44;13.17;;;8.23;;
11671;SDS011;5892;43.412;24.612;2023-01-23T14:13:13;14.80;;;8.87;;
11671;SDS011;5892;43.412;24.612;2023-01-23T14:15:48;16.30;;;10.47;;
11671;SDS011;5892;43.412;24.612;2023-01-23T14:18:35;17.23;;;10.57;;
11671;SDS011;5892;43.412;24.612;2023-01-23T14:21:04;14.77;;;9.50;;
11671;SDS011;5892;43.412;24.612;2023-01-23T14:23:41;15.23;;;9.03;;
11671;SDS011;5892;43.412;24.612;2023-01-23T14:26:13;15.00;;;8.47;;
11671;SDS011;5892;43.412;24.612;2023-01-23T14:28:49;13.97;;;9.50;;
11671;SDS011;5892;43.412;24.612;2023-01-23T14:31:21;20.00;;;10.70;;
11671;SDS011;5892;43.412;24.612;2023-01-23T14:33:54;16.27;;;10.10;;
11671;SDS011;5892;43.412;24.612;2023-01-23T14:36:25;17.93;;;10.13;;
11671;SDS011;5892;43.412;24.612;2023-01-23T14:38:52;17.10;;;10.40;;
11671;SDS011;5892;43.412;24.612;2023-01-23T14:41:23;15.27;;;9.77;;
11671;SDS011;5892;43.412;24.612;2023-01-23T14:43:54;21.53;;;15.30;;
11671;SDS011;5892;43.412;24.612;2023-01-23T14:46:32;11.73;;;7.67;;
11671;SDS011;5892;43.412;24.612;2023-01-23T14:49:01;18.27;;;11.37;;
11671;SDS011;5892;43.412;24.612;2023-01-23T14:51:31;15.87;;;8.80;;
11671;SDS011;5892;43.412;24.612;2023-01-23T14:53:58;21.30;;;13.27;;
11671;SDS011;5892;43.412;24.612;2023-01-23T14:56:27;16.77;;;9.77;;
11671;SDS011;5892;43.412;24.612;2023-01-23T14:58:57;21.47;;;11.60;;
11671;SDS011;5892;43.412;24.612;2023-01-23T15:01:28;34.00;;;25.33;;
11671;SDS011;5892;43.412;24.612;2023-01-23T15:04:00;19.87;;;12.77;;
11671;SDS011;5892;43.412;24.612;2023-01-23T15:06:29;18.70;;;10.73;;
11671;SDS011;5892;43.412;24.612;2023-01-23T15:09:06;15.33;;;9.63;;
11671;SDS011;5892;43.412;24.612;2023-01-23T15:11:39;16.20;;;11.17;;
11671;SDS011;5892;43.412;24.612;2023-01-23T15:14:13;21.17;;;12.07;;
11671;SDS011;5892;43.412;24.612;2023-01-23T15:16:50;20.20;;;11.80;;
11671;SDS011;5892;43.412;24.612;2023-01-23T15:19:24;16.97;;;11.53;;
11671;SDS011;5892;43.412;24.612;2023-01-23T15:22:03;17.87;;;11.87;;
11671;SDS011;5892;43.412;24.612;2023-01-23T15:24:32;20.20;;;12.17;;